Aviation Digital Data Service (ADDS)

Output produced by METARs form (1143 UTC 25 June 2019)
found at http://www.aviationweather.gov/metar/data/
 
KCAK 251051Z 26007KT 10SM FEW080 19/17 A2988 RMK AO2 SLP109 T01940167 $
KCAK 251131Z 2512/2612 26008KT P6SM SKC 
     FM251600 25016KT P6SM SCT080 
     FM260000 23008KT P6SM SCT250